Time;durP1;ratioP1;P1;durP2;ratioP2;P2;SDS_P1;SDS_P2;PMS_P1;PMS_P2;Temp;Humidity;BMP_temperature;BMP_pressure;BME280_temperature;BME280_humidity;BME280_pressure;Samples;Min_cycle;Max_cycle;Signal;HPM_P1;HPM_P2
2023/11/03 00:00:42;;;;;;;;;;;;;;;;;;;;;
2023/11/03 00:03:39;;;;;;;0.08;0.08;;;;;;;;;;6219225;23;20091;-88
2023/11/03 00:15:41;;;;;;;;;;;;;;;;;;6038902;23;20014;-87
2023/11/03 00:27:44;;;;;;;0.70;0.10;;;;;;;;;;6217873;23;20144;-87
2023/11/03 00:30:45;;;;;;;0.00;0.00;;;;;;;;;;6191394;23;20013;-87
2023/11/03 00:40:07;;;;;;;;;;;;;;;;;;;;;
2023/11/03 00:46:08;;;;;;;;;;;;;;;;;;;;;
2023/11/03 03:47:08;;;;;;;;;;;;;;;;;;;;;
2023/11/03 05:17:03;;;;;;;0.63;0.08;;;;;;;;;;6151640;23;20018;-87
2023/11/03 05:20:18;;;;;;;;;;;;;;;;;;;;;
2023/11/03 05:28:40;;;;;;;0.00;0.00;;;;;;;;;;6213364;23;20008;-87
2023/11/03 05:38:04;;;;;;;;;;;;;;;;;;;;;
2023/11/03 06:00:28;;;;;;;1.73;0.10;;;;;;;;;;6215213;23;20074;-87
2023/11/03 06:15:59;;;;;;;3.10;0.52;;;;;;;;;;6179800;22;20031;-88
2023/11/03 06:21:22;;;;;;;1.15;0.50;;;;;;;;;;6212870;23;20100;-88
2023/11/03 06:24:05;;;;;;;1.58;0.38;;;;;;;;;;6186348;23;20437;-87
2023/11/03 06:27:02;;;;;;;;;;;;;;;;;;;;;
2023/11/03 06:29:33;;;;;;;1.90;0.35;;;;;;;;;;6202845;23;20088;-88
2023/11/03 06:31:59;;;;;;;0.10;0.10;;;;;;;;;;6187076;23;20009;-87
2023/11/03 06:34:25;;;;;;;0.63;0.30;;;;;;;;;;6186760;23;20009;-86
2023/11/03 06:36:51;;;;;;;0.30;0.20;;;;;;;;;;6186172;23;20008;-86
2023/11/03 06:39:18;;;;;;;1.23;0.47;;;;;;;;;;6186735;23;20083;-86
2023/11/03 06:41:44;;;;;;;1.80;0.57;;;;;;;;;;6185376;23;20082;-86
2023/11/03 06:44:13;;;;;;;0.20;0.20;;;;;;;;;;6186439;23;20119;-87
2023/11/03 06:46:42;;;;;;;1.02;0.38;;;;;;;;;;6185922;23;20024;-88
2023/11/03 06:49:08;;;;;;;0.57;0.28;;;;;;;;;;6187587;23;20785;-87
2023/11/03 06:51:34;;;;;;;0.35;0.22;;;;;;;;;;6186453;23;20016;-87
2023/11/03 06:54:01;;;;;;;2.75;0.65;;;;;;;;;;6184925;23;20004;-86
2023/11/03 06:56:27;;;;;;;1.77;0.30;;;;;;;;;;6182248;23;20020;-87
2023/11/03 06:58:53;;;;;;;1.52;0.30;;;;;;;;;;6185922;23;20016;-87
2023/11/03 07:01:19;;;;;;;0.68;0.30;;;;;;;;;;6186643;23;20112;-87
2023/11/03 07:03:45;;;;;;;0.73;0.25;;;;;;;;;;6185859;23;20016;-87
2023/11/03 07:06:13;;;;;;;0.75;0.38;;;;;;;;;;6185682;23;20147;-87
2023/11/03 07:08:39;;;;;;;1.15;0.50;;;;;;;;;;6185703;23;20024;-87
2023/11/03 07:11:05;;;;;;;0.73;0.17;;;;;;;;;;6185968;23;20028;-87
2023/11/03 07:13:32;;;;;;;0.63;0.20;;;;;;;;;;6184980;23;20035;-87
2023/11/03 07:15:58;;;;;;;0.57;0.30;;;;;;;;;;6185704;23;20092;-87
2023/11/03 07:18:25;;;;;;;0.10;0.10;;;;;;;;;;6215940;23;20020;-87
2023/11/03 07:20:51;;;;;;;0.10;0.00;;;;;;;;;;6215375;23;20008;-88
2023/11/03 07:23:18;;;;;;;0.20;0.20;;;;;;;;;;6216153;23;20522;-87
2023/11/03 07:25:45;;;;;;;0.50;0.30;;;;;;;;;;6215273;23;20091;-88
2023/11/03 07:28:11;;;;;;;8.45;0.95;;;;;;;;;;6215711;23;20486;-87
2023/11/03 07:30:37;;;;;;;0.55;0.32;;;;;;;;;;6215574;23;20035;-87
2023/11/03 07:33:03;;;;;;;0.57;0.43;;;;;;;;;;6215553;23;20352;-87
2023/11/03 07:35:29;;;;;;;0.57;0.40;;;;;;;;;;6215435;23;20016;-88
2023/11/03 07:37:55;;;;;;;0.25;0.00;;;;;;;;;;6216269;23;20014;-88
2023/11/03 07:40:21;;;;;;;;;;;;;;;;;;6215621;23;20012;-88
2023/11/03 07:42:48;;;;;;;0.20;0.10;;;;;;;;;;6215599;23;20316;-88
2023/11/03 07:45:14;;;;;;;;;;;;;;;;;;6216164;23;20100;-87
2023/11/03 07:47:41;;;;;;;0.30;0.00;;;;;;;;;;6215916;23;19907;-88
2023/11/03 07:50:08;;;;;;;0.10;0.00;;;;;;;;;;6215118;23;20333;-88
2023/11/03 07:52:33;;;;;;;;;;;;;;;;;;6216244;23;20027;-88
2023/11/03 07:55:01;;;;;;;1.73;0.52;;;;;;;;;;6215538;23;19934;-88
2023/11/03 07:57:27;;;;;;;1.33;0.50;;;;;;;;;;6214282;23;20420;-88
2023/11/03 07:59:54;;;;;;;;;;;;;;;;;;6216284;23;20020;-88
2023/11/03 08:02:20;;;;;;;0.57;0.20;;;;;;;;;;6216007;23;20307;-88
2023/11/03 08:04:46;;;;;;;;;;;;;;;;;;6216310;23;20016;-88
2023/11/03 08:07:13;;;;;;;0.40;0.00;;;;;;;;;;6215382;23;20127;-89
2023/11/03 08:09:39;;;;;;;0.50;0.25;;;;;;;;;;6214810;23;20421;-89
2023/11/03 08:12:07;;;;;;;0.20;0.10;;;;;;;;;;6215449;23;20655;-88
2023/11/03 08:14:33;;;;;;;0.10;0.10;;;;;;;;;;6216298;23;20542;-88
2023/11/03 08:16:59;;;;;;;0.10;0.10;;;;;;;;;;6215086;23;20531;-89
2023/11/03 08:19:25;;;;;;;0.63;0.32;;;;;;;;;;6215922;23;20027;-89
2023/11/03 08:21:51;;;;;;;1.45;0.70;;;;;;;;;;6215447;23;20008;-88
2023/11/03 08:24:17;;;;;;;1.10;0.60;;;;;;;;;;6215372;23;20084;-89
2023/11/03 08:26:43;;;;;;;2.22;1.02;;;;;;;;;;6213629;23;20434;-88
2023/11/03 08:29:09;;;;;;;3.83;0.43;;;;;;;;;;6215206;23;20496;-88
2023/11/03 08:31:35;;;;;;;4.88;1.20;;;;;;;;;;6215635;23;20035;-88
2023/11/03 08:34:04;;;;;;;2.92;0.52;;;;;;;;;;6215413;23;20004;-89
2023/11/03 08:36:31;;;;;;;1.20;0.85;;;;;;;;;;6216188;23;20086;-88
2023/11/03 08:38:57;;;;;;;0.38;0.30;;;;;;;;;;6216085;23;20019;-89
2023/11/03 08:41:25;;;;;;;;;;;;;;;;;;6216802;23;20127;-89
2023/11/03 08:43:52;;;;;;;3.33;1.30;;;;;;;;;;6214808;23;19909;-89
2023/11/03 08:46:18;;;;;;;1.42;0.50;;;;;;;;;;6215867;23;20499;-89
2023/11/03 08:48:45;;;;;;;0.30;0.20;;;;;;;;;;6215407;23;20083;-88
2023/11/03 08:51:11;;;;;;;1.35;0.22;;;;;;;;;;6215454;23;20066;-89
2023/11/03 08:53:37;;;;;;;0.38;0.20;;;;;;;;;;6216036;23;20416;-89
2023/11/03 08:56:04;;;;;;;0.32;0.20;;;;;;;;;;6215479;23;20020;-89
2023/11/03 08:58:34;;;;;;;0.60;0.10;;;;;;;;;;6215778;23;20094;-89
2023/11/03 09:01:00;;;;;;;;;;;;;;;;;;6216429;23;20020;-89
2023/11/03 09:03:27;;;;;;;;;;;;;;;;;;6216531;23;19903;-89
2023/11/03 09:05:54;;;;;;;;;;;;;;;;;;6215499;23;19911;-88
2023/11/03 09:08:20;;;;;;;1.20;0.60;;;;;;;;;;6215514;23;19925;-88
2023/11/03 09:10:46;;;;;;;3.08;1.23;;;;;;;;;;6213057;23;20378;-89
2023/11/03 09:13:12;;;;;;;2.17;0.75;;;;;;;;;;6216469;23;20008;-88
2023/11/03 09:15:38;;;;;;;;;;;;;;;;;;6215801;23;20004;-88
2023/11/03 09:18:07;;;;;;;1.38;0.43;;;;;;;;;;6214363;23;19923;-88
2023/11/03 09:20:33;;;;;;;1.42;0.57;;;;;;;;;;6215599;23;20107;-89
2023/11/03 09:22:59;;;;;;;0.77;0.20;;;;;;;;;;6214875;23;20012;-89
2023/11/03 09:25:27;;;;;;;0.70;0.32;;;;;;;;;;6215256;23;20020;-89
2023/11/03 09:27:53;;;;;;;1.02;0.65;;;;;;;;;;6214623;23;20012;-89
2023/11/03 09:30:20;;;;;;;1.85;0.50;;;;;;;;;;6214864;23;20019;-89
2023/11/03 09:32:47;;;;;;;2.10;0.88;;;;;;;;;;6214540;23;20004;-89
2023/11/03 09:35:19;;;;;;;1.38;0.70;;;;;;;;;;6214565;23;20016;-89
2023/11/03 09:37:45;;;;;;;0.90;0.38;;;;;;;;;;6215753;23;20119;-89
2023/11/03 09:40:12;;;;;;;1.23;0.60;;;;;;;;;;6214860;23;20047;-89
2023/11/03 09:42:46;;;;;;;3.35;1.08;;;;;;;;;;6215787;23;20008;-89
2023/11/03 09:45:15;;;;;;;2.40;0.50;;;;;;;;;;6215072;23;20016;-89
2023/11/03 09:47:50;;;;;;;1.35;1.00;;;;;;;;;;6215479;23;20016;-89
2023/11/03 09:50:27;;;;;;;0.68;0.30;;;;;;;;;;6214842;23;20059;-89
2023/11/03 09:53:00;;;;;;;1.90;0.65;;;;;;;;;;6215473;23;20039;-89
2023/11/03 09:55:31;;;;;;;2.35;0.77;;;;;;;;;;6215624;23;20008;-88
2023/11/03 09:58:05;;;;;;;0.38;0.20;;;;;;;;;;6216147;23;20432;-89
2023/11/03 10:00:32;;;;;;;2.30;1.00;;;;;;;;;;6216085;23;20062;-88
2023/11/03 10:03:04;;;;;;;1.55;0.70;;;;;;;;;;6216441;23;20095;-88
2023/11/03 10:05:31;;;;;;;0.25;0.20;;;;;;;;;;6215920;23;20348;-88
2023/11/03 10:08:01;;;;;;;0.43;0.10;;;;;;;;;;6215827;23;20678;-88
2023/11/03 10:10:36;;;;;;;0.40;0.10;;;;;;;;;;6215918;23;20418;-88
2023/11/03 10:13:05;;;;;;;9.52;1.55;;;;;;;;;;6216092;23;20008;-89
2023/11/03 10:15:32;;;;;;;8.93;1.27;;;;;;;;;;6215639;23;20008;-89
2023/11/03 10:17:58;;;;;;;2.53;1.17;;;;;;;;;;6215479;23;20034;-89
2023/11/03 10:20:30;;;;;;;0.68;0.40;;;;;;;;;;6215432;23;20048;-88
2023/11/03 10:23:04;;;;;;;0.88;0.15;;;;;;;;;;6215692;23;20016;-88
2023/11/03 10:25:36;;;;;;;1.05;0.40;;;;;;;;;;6216055;23;20423;-90
2023/11/03 10:28:21;;;;;;;0.50;0.20;;;;;;;;;;6215542;23;20387;-89
2023/11/03 10:31:16;;;;;;;0.30;0.10;;;;;;;;;;6214572;23;20051;-88
2023/11/03 10:34:04;;;;;;;0.10;0.10;;;;;;;;;;6212386;23;20095;-88
2023/11/03 10:36:39;;;;;;;0.45;0.30;;;;;;;;;;6214284;23;20667;-88
2023/11/03 10:39:15;;;;;;;0.75;0.22;;;;;;;;;;6215232;23;20427;-88
2023/11/03 10:41:44;;;;;;;0.80;0.30;;;;;;;;;;6213562;23;20157;-89
2023/11/03 10:44:16;;;;;;;1.65;0.40;;;;;;;;;;6214599;23;20048;-89
2023/11/03 10:46:45;;;;;;;0.17;0.10;;;;;;;;;;6215840;23;20441;-89
2023/11/03 10:49:11;;;;;;;0.52;0.20;;;;;;;;;;6215798;23;20381;-89
2023/11/03 10:51:41;;;;;;;0.00;0.00;;;;;;;;;;6216421;23;20455;-88
2023/11/03 10:54:10;;;;;;;0.00;0.00;;;;;;;;;;6216677;23;20014;-88
2023/11/03 10:56:37;;;;;;;0.75;0.17;;;;;;;;;;6215906;23;20016;-89
2023/11/03 10:59:04;;;;;;;0.88;0.20;;;;;;;;;;6216781;23;20200;-89
2023/11/03 11:01:36;;;;;;;0.43;0.28;;;;;;;;;;6215896;23;20035;-88
2023/11/03 11:04:05;;;;;;;0.00;0.00;;;;;;;;;;6216521;23;20370;-89
2023/11/03 11:06:39;;;;;;;0.65;0.40;;;;;;;;;;6215790;23;20016;-88
2023/11/03 11:09:15;;;;;;;0.22;0.20;;;;;;;;;;6216925;23;20012;-88
2023/11/03 11:11:41;;;;;;;0.60;0.10;;;;;;;;;;6216254;23;20046;-89
2023/11/03 11:14:21;;;;;;;0.10;0.00;;;;;;;;;;6216859;23;20019;-87
2023/11/03 11:16:47;;;;;;;0.00;0.00;;;;;;;;;;6206409;23;20507;-88
2023/11/03 11:19:14;;;;;;;0.30;0.10;;;;;;;;;;6186999;23;20039;-88
2023/11/03 11:21:46;;;;;;;0.38;0.20;;;;;;;;;;6187022;23;20015;-88
2023/11/03 11:24:12;;;;;;;;;;;;;;;;;;6186673;23;20016;-87
2023/11/03 11:26:40;;;;;;;0.08;0.05;;;;;;;;;;6185772;23;19946;-88
2023/11/03 11:29:23;;;;;;;1.20;0.32;;;;;;;;;;6184482;23;20437;-89
2023/11/03 11:31:49;;;;;;;;;;;;;;;;;;6186537;23;20017;-89
2023/11/03 11:34:20;;;;;;;0.20;0.10;;;;;;;;;;6185361;23;20713;-88
2023/11/03 11:36:50;;;;;;;1.50;0.43;;;;;;;;;;6184704;23;20903;-88
2023/11/03 11:39:22;;;;;;;0.30;0.10;;;;;;;;;;6184787;23;20021;-89
2023/11/03 11:42:00;;;;;;;0.10;0.00;;;;;;;;;;6185673;23;20012;-88
2023/11/03 11:44:27;;;;;;;1.52;0.52;;;;;;;;;;6183859;23;20389;-89
2023/11/03 11:46:57;;;;;;;1.60;0.30;;;;;;;;;;6184292;23;20588;-89
2023/11/03 11:49:27;;;;;;;1.40;0.47;;;;;;;;;;6184919;23;20021;-89
2023/11/03 11:51:58;;;;;;;0.93;0.45;;;;;;;;;;6185405;23;20009;-89
2023/11/03 11:54:25;;;;;;;0.10;0.05;;;;;;;;;;6184631;23;20012;-89
2023/11/03 11:56:51;;;;;;;0.30;0.05;;;;;;;;;;6185111;23;20008;-89
2023/11/03 11:59:18;;;;;;;1.05;0.25;;;;;;;;;;6184528;23;20036;-89
2023/11/03 12:01:46;;;;;;;0.57;0.10;;;;;;;;;;6185551;23;20020;-90
2023/11/03 12:04:12;;;;;;;0.88;0.47;;;;;;;;;;6185477;23;20012;-89
2023/11/03 12:06:42;;;;;;;0.43;0.20;;;;;;;;;;6185657;23;20013;-89
2023/11/03 12:09:08;;;;;;;0.00;0.00;;;;;;;;;;6185481;23;20012;-89
2023/11/03 12:11:36;;;;;;;0.45;0.20;;;;;;;;;;6185822;23;20332;-90
2023/11/03 12:14:04;;;;;;;3.53;1.58;;;;;;;;;;6185109;23;20051;-89
2023/11/03 12:16:36;;;;;;;9.02;3.55;;;;;;;;;;6192145;23;20099;-88
2023/11/03 12:19:05;;;;;;;3.28;1.20;;;;;;;;;;6215496;23;20020;-89
2023/11/03 12:21:31;;;;;;;0.43;0.10;;;;;;;;;;6215966;23;20051;-89
2023/11/03 12:24:01;;;;;;;0.20;0.20;;;;;;;;;;6215235;23;20576;-89
2023/11/03 12:26:31;;;;;;;0.63;0.20;;;;;;;;;;6215859;23;20012;-90
2023/11/03 12:29:18;;;;;;;0.00;0.00;;;;;;;;;;6215777;23;20418;-89
2023/11/03 12:31:46;;;;;;;0.00;0.00;;;;;;;;;;6215771;23;20107;-88
2023/11/03 12:34:12;;;;;;;0.00;0.00;;;;;;;;;;6215832;23;20849;-89
2023/11/03 12:36:48;;;;;;;;;;;;;;;;;;;;;
2023/11/03 12:39:22;;;;;;;1.85;0.10;;;;;;;;;;6242640;23;20094;-89
2023/11/03 12:42:11;;;;;;;1.00;0.32;;;;;;;;;;6214553;23;20777;-89
2023/11/03 12:44:51;;;;;;;2.25;0.15;;;;;;;;;;6215007;23;20019;-89
2023/11/03 12:47:40;;;;;;;0.10;0.10;;;;;;;;;;6216271;23;20008;-88
2023/11/03 12:50:33;;;;;;;0.10;0.08;;;;;;;;;;6214535;23;20024;-88
2023/11/03 12:53:07;;;;;;;0.08;0.00;;;;;;;;;;6216025;23;20454;-89
2023/11/03 12:55:37;;;;;;;0.20;0.10;;;;;;;;;;6215365;23;20078;-88
2023/11/03 12:58:09;;;;;;;0.22;0.03;;;;;;;;;;6216281;23;20609;-88
2023/11/03 13:00:38;;;;;;;0.00;0.00;;;;;;;;;;6215668;23;20011;-88
2023/11/03 13:03:10;;;;;;;0.40;0.10;;;;;;;;;;6216252;23;20461;-88
2023/11/03 13:05:36;;;;;;;0.20;0.15;;;;;;;;;;6148823;23;20096;-89
2023/11/03 13:08:03;;;;;;;0.00;0.00;;;;;;;;;;6149330;23;20013;-88
2023/11/03 13:10:29;;;;;;;;;;;;;;;;;;6149837;23;20015;-89
2023/11/03 13:13:05;;;;;;;0.00;0.00;;;;;;;;;;6147210;23;19915;-88
2023/11/03 13:15:39;;;;;;;0.30;0.20;;;;;;;;;;6148377;23;20013;-89
2023/11/03 13:18:08;;;;;;;0.35;0.20;;;;;;;;;;6148285;23;20087;-89
2023/11/03 13:20:35;;;;;;;1.55;0.10;;;;;;;;;;6148626;23;20053;-89
2023/11/03 13:23:07;;;;;;;0.03;0.00;;;;;;;;;;6147337;23;20013;-89
2023/11/03 13:28:39;;;;;;;1.00;0.13;;;;;;;;;;6148111;23;20100;-89
2023/11/03 13:31:10;;;;;;;;;;;;;;;;;;6203262;23;20012;-89
2023/11/03 13:33:42;;;;;;;0.30;0.17;;;;;;;;;;6208728;23;19911;-88
2023/11/03 13:36:14;;;;;;;0.13;0.05;;;;;;;;;;6209581;23;20011;-89
2023/11/03 13:38:53;;;;;;;;;;;;;;;;;;;;;
2023/11/03 13:41:23;;;;;;;0.50;0.20;;;;;;;;;;6212068;23;20440;-89
2023/11/03 13:43:54;;;;;;;0.90;0.10;;;;;;;;;;6208910;23;20012;-89
2023/11/03 13:46:24;;;;;;;0.70;0.10;;;;;;;;;;6210373;23;20016;-89
2023/11/03 13:48:53;;;;;;;1.40;0.43;;;;;;;;;;6209314;23;20513;-89
2023/11/03 13:51:19;;;;;;;1.52;0.70;;;;;;;;;;6210374;23;20012;-89
2023/11/03 13:53:47;;;;;;;2.25;0.85;;;;;;;;;;6208363;23;20024;-89
2023/11/03 13:56:21;;;;;;;0.30;0.10;;;;;;;;;;6185176;23;20022;-89
2023/11/03 13:59:02;;;;;;;3.70;0.10;;;;;;;;;;6183473;23;20012;-88
2023/11/03 14:01:36;;;;;;;0.30;0.08;;;;;;;;;;6185114;23;20013;-88
2023/11/03 14:04:02;;;;;;;2.35;0.52;;;;;;;;;;6184143;23;20016;-89
2023/11/03 14:06:31;;;;;;;0.00;0.00;;;;;;;;;;6185063;23;20055;-89
2023/11/03 14:09:04;;;;;;;4.38;0.05;;;;;;;;;;6184015;23;20035;-88
2023/11/03 14:11:30;;;;;;;;;;;;;;;;;;6184124;23;20080;-88
2023/11/03 14:13:58;;;;;;;0.65;0.15;;;;;;;;;;6183444;23;20487;-89
2023/11/03 14:16:24;;;;;;;0.30;0.17;;;;;;;;;;6186403;23;20012;-89
2023/11/03 14:18:51;;;;;;;0.20;0.17;;;;;;;;;;6214645;23;20012;-88
2023/11/03 14:21:32;;;;;;;;;;;;;;;;;;;;;
2023/11/03 14:23:58;;;;;;;0.17;0.10;;;;;;;;;;6243494;23;20018;-88
2023/11/03 14:26:28;;;;;;;0.10;0.10;;;;;;;;;;6215986;23;20070;-88
2023/11/03 14:29:03;;;;;;;0.22;0.20;;;;;;;;;;6216222;23;20012;-89
2023/11/03 14:31:32;;;;;;;1.70;0.38;;;;;;;;;;6215913;23;20059;-89
2023/11/03 14:34:09;;;;;;;;;;;;;;;;;;;;;
2023/11/03 14:36:37;;;;;;;1.83;0.90;;;;;;;;;;6243069;23;20024;-89
2023/11/03 14:39:22;;;;;;;0.00;0.00;;;;;;;;;;6217050;23;20026;-89
2023/11/03 14:42:17;;;;;;;0.00;0.00;;;;;;;;;;6216522;23;20099;-89
2023/11/03 14:44:54;;;;;;;0.63;0.35;;;;;;;;;;6217052;23;20040;-89
2023/11/03 14:47:24;;;;;;;1.65;0.40;;;;;;;;;;6217603;23;20391;-89
2023/11/03 14:50:13;;;;;;;0.57;0.40;;;;;;;;;;6215008;23;20392;-89
2023/11/03 14:52:41;;;;;;;0.55;0.40;;;;;;;;;;6242597;23;20509;-88
2023/11/03 14:55:08;;;;;;;0.40;0.20;;;;;;;;;;6216984;23;20412;-89
2023/11/03 14:57:43;;;;;;;4.60;0.65;;;;;;;;;;6216027;23;20462;-89
2023/11/03 15:00:20;;;;;;;0.47;0.20;;;;;;;;;;6216577;23;20423;-89
2023/11/03 15:05:41;;;;;;;2.38;0.20;;;;;;;;;;6181183;23;19916;-89
2023/11/03 15:08:13;;;;;;;0.47;0.10;;;;;;;;;;6216830;23;20008;-89
2023/11/03 15:10:39;;;;;;;2.20;0.30;;;;;;;;;;6214425;23;20394;-88
2023/11/03 15:13:28;;;;;;;0.73;0.50;;;;;;;;;;6216519;23;20005;-89
2023/11/03 15:15:57;;;;;;;0.20;0.20;;;;;;;;;;6215602;23;20026;-88
2023/11/03 15:18:23;;;;;;;2.20;0.10;;;;;;;;;;6215935;23;20020;-88
2023/11/03 15:20:49;;;;;;;0.70;0.45;;;;;;;;;;6215772;23;20095;-88
2023/11/03 15:23:16;;;;;;;2.00;0.30;;;;;;;;;;6216636;23;20070;-88
2023/11/03 15:25:42;;;;;;;1.52;0.73;;;;;;;;;;6216553;23;20050;-88
2023/11/03 15:28:08;;;;;;;1.75;0.25;;;;;;;;;;6216995;23;20019;-89
2023/11/03 15:30:35;;;;;;;0.65;0.40;;;;;;;;;;6216396;23;20094;-88
2023/11/03 15:33:01;;;;;;;4.35;1.23;;;;;;;;;;6216382;23;20098;-88
2023/11/03 15:35:27;;;;;;;1.70;0.50;;;;;;;;;;6216530;23;20011;-88
2023/11/03 15:37:55;;;;;;;1.38;0.47;;;;;;;;;;6217490;23;20035;-88
2023/11/03 15:40:24;;;;;;;0.68;0.38;;;;;;;;;;6243513;23;20499;-88
2023/11/03 15:42:51;;;;;;;1.02;0.47;;;;;;;;;;6217496;23;20016;-88
2023/11/03 15:45:17;;;;;;;0.22;0.13;;;;;;;;;;6216488;23;20502;-88
2023/11/03 15:47:46;;;;;;;0.30;0.20;;;;;;;;;;6217106;23;20058;-89
2023/11/03 15:50:12;;;;;;;0.60;0.35;;;;;;;;;;6215526;23;20435;-88
2023/11/03 15:52:42;;;;;;;0.93;0.20;;;;;;;;;;6216985;23;20012;-88
2023/11/03 15:55:14;;;;;;;1.35;0.50;;;;;;;;;;6216530;23;20015;-89
2023/11/03 15:57:40;;;;;;;;;;;;;;;;;;6218018;23;20118;-88
2023/11/03 16:00:07;;;;;;;0.40;0.30;;;;;;;;;;6217361;23;20607;-88
2023/11/03 16:02:36;;;;;;;0.45;0.30;;;;;;;;;;6217382;23;20018;-88
2023/11/03 16:05:03;;;;;;;1.08;0.32;;;;;;;;;;6216214;23;20087;-88
2023/11/03 16:07:33;;;;;;;0.25;0.20;;;;;;;;;;6216521;23;20391;-89
2023/11/03 16:09:59;;;;;;;0.77;0.30;;;;;;;;;;6216790;23;20036;-88
2023/11/03 16:12:28;;;;;;;0.27;0.13;;;;;;;;;;6215347;23;20413;-88
2023/11/03 16:14:55;;;;;;;0.65;0.20;;;;;;;;;;6214758;23;20362;-88
2023/11/03 16:17:21;;;;;;;1.93;0.33;;;;;;;;;;6214328;23;21263;-88
2023/11/03 16:19:47;;;;;;;0.33;0.20;;;;;;;;;;6216054;23;21156;-88
2023/11/03 16:22:13;;;;;;;0.57;0.40;;;;;;;;;;6216525;23;20012;-89
2023/11/03 16:24:39;;;;;;;0.55;0.20;;;;;;;;;;6217245;23;20027;-89
2023/11/03 16:27:06;;;;;;;0.60;0.30;;;;;;;;;;6216848;23;20435;-88
2023/11/03 16:29:32;;;;;;;;;;;;;;;;;;6217903;23;20442;-88
2023/11/03 16:31:59;;;;;;;0.52;0.52;;;;;;;;;;6216042;23;19907;-89
2023/11/03 16:34:28;;;;;;;0.95;0.50;;;;;;;;;;6216608;23;20442;-88
2023/11/03 16:36:54;;;;;;;1.13;0.52;;;;;;;;;;6215389;23;20513;-89
2023/11/03 16:39:20;;;;;;;3.00;0.45;;;;;;;;;;6216192;23;20012;-89
2023/11/03 16:41:46;;;;;;;0.50;0.30;;;;;;;;;;6215019;23;20031;-88
2023/11/03 16:44:12;;;;;;;0.98;0.28;;;;;;;;;;6216565;23;20011;-89
2023/11/03 16:46:38;;;;;;;0.70;0.30;;;;;;;;;;6216171;23;20012;-89
2023/11/03 16:49:07;;;;;;;0.00;0.00;;;;;;;;;;6214852;23;20226;-89
2023/11/03 16:51:33;;;;;;;1.08;0.00;;;;;;;;;;6215520;23;20020;-88
2023/11/03 16:53:59;;;;;;;0.35;0.10;;;;;;;;;;6215485;23;20011;-88
2023/11/03 16:56:28;;;;;;;0.30;0.20;;;;;;;;;;6215240;23;20012;-87
2023/11/03 16:58:54;;;;;;;1.55;0.47;;;;;;;;;;6214816;23;20009;-87
2023/11/03 17:01:23;;;;;;;3.72;0.98;;;;;;;;;;6215879;23;20020;-89
2023/11/03 17:03:48;;;;;;;6.57;1.17;;;;;;;;;;6214075;23;20209;-88
2023/11/03 17:06:15;;;;;;;2.47;0.93;;;;;;;;;;6215992;23;20676;-88
2023/11/03 17:08:41;;;;;;;0.47;0.35;;;;;;;;;;6216507;23;20019;-88
2023/11/03 17:11:07;;;;;;;0.43;0.35;;;;;;;;;;6217468;23;20043;-91
2023/11/03 17:13:34;;;;;;;0.85;0.30;;;;;;;;;;6218907;23;20096;-88
2023/11/03 17:16:27;;;;;;;2.05;0.57;;;;;;;;;;6217709;23;20023;-91
2023/11/03 17:18:58;;;;;;;2.17;0.75;;;;;;;;;;6217407;23;20094;-92
2023/11/03 17:21:33;;;;;;;2.67;1.40;;;;;;;;;;6219369;23;20021;-89
2023/11/03 17:23:59;;;;;;;4.60;1.15;;;;;;;;;;6219406;23;20004;-90
2023/11/03 17:26:26;;;;;;;2.28;1.20;;;;;;;;;;6215652;23;20008;-90
2023/11/03 17:28:54;;;;;;;2.42;0.60;;;;;;;;;;6215599;23;20004;-89
2023/11/03 17:31:24;;;;;;;0.32;0.30;;;;;;;;;;6216282;23;20078;-90
2023/11/03 17:34:20;;;;;;;0.65;0.52;;;;;;;;;;6215059;23;20086;-91
2023/11/03 17:42:50;;;;;;;0.57;0.37;;;;;;;;;;6213779;23;20093;-91
2023/11/03 17:45:17;;;;;;;0.52;0.30;;;;;;;;;;6213308;23;20507;-89
2023/11/03 17:47:55;;;;;;;1.92;0.35;;;;;;;;;;6188440;23;20005;-90
2023/11/03 17:50:42;;;;;;;0.05;0.03;;;;;;;;;;6211312;23;20016;-89
2023/11/03 17:53:26;;;;;;;1.10;0.43;;;;;;;;;;6188974;23;20020;-91
2023/11/03 17:55:59;;;;;;;0.47;0.05;;;;;;;;;;6189697;23;20498;-90
2023/11/03 17:58:42;;;;;;;0.30;0.30;;;;;;;;;;6213572;23;20012;-87
2023/11/03 18:01:27;;;;;;;1.83;0.30;;;;;;;;;;6189170;23;20011;-89
2023/11/03 18:04:01;;;;;;;0.30;0.10;;;;;;;;;;6188833;23;20348;-89
2023/11/03 18:06:36;;;;;;;0.20;0.10;;;;;;;;;;6183715;23;20013;-89
2023/11/03 18:09:10;;;;;;;0.17;0.05;;;;;;;;;;6158882;23;20063;-89
2023/11/03 18:11:52;;;;;;;;;;;;;;;;;;;;;
2023/11/03 18:20:12;;;;;;;1.13;0.25;;;;;;;;;;6180251;23;19927;-89
2023/11/03 18:22:47;;;;;;;1.00;0.50;;;;;;;;;;6158166;23;20099;-87
2023/11/03 18:25:15;;;;;;;1.25;0.85;;;;;;;;;;6157488;23;20006;-90
2023/11/03 18:27:43;;;;;;;0.50;0.30;;;;;;;;;;6159340;23;20107;-90
2023/11/03 18:40:05;;;;;;;1.27;0.30;;;;;;;;;;6124960;23;20021;-87
2023/11/03 18:43:30;;;;;;;1.63;0.63;;;;;;;;;;6099895;23;20065;-91
2023/11/03 18:48:38;;;;;;;;;;;;;;;;;;6226477;23;19903;-90
2023/11/03 18:51:05;;;;;;;0.20;0.10;;;;;;;;;;6220171;23;19912;-88
2023/11/03 18:53:39;;;;;;;1.25;0.20;;;;;;;;;;6219120;23;20368;-88
2023/11/03 18:56:09;;;;;;;0.68;0.25;;;;;;;;;;6218053;23;20095;-88
2023/11/03 18:58:37;;;;;;;2.70;0.60;;;;;;;;;;6219421;23;20036;-87
2023/11/03 19:01:32;;;;;;;2.22;0.60;;;;;;;;;;6218491;23;20059;-89
2023/11/03 19:04:20;;;;;;;;;;;;;;;;;;;;;
2023/11/03 19:19:27;;;;;;;0.47;0.10;;;;;;;;;;6190487;22;20479;-85
2023/11/03 19:22:13;;;;;;;0.77;0.30;;;;;;;;;;6217082;23;20004;-89
2023/11/03 19:43:24;;;;;;;4.00;0.82;;;;;;;;;;6245358;22;20396;-90
2023/11/03 19:45:51;;;;;;;3.17;1.08;;;;;;;;;;6172191;23;20020;-93
2023/11/03 19:48:32;;;;;;;4.28;0.75;;;;;;;;;;6218479;23;20004;-93
2023/11/03 19:50:58;;;;;;;1.88;0.45;;;;;;;;;;6215926;23;20095;-88
2023/11/03 19:53:24;;;;;;;0.30;0.20;;;;;;;;;;6217699;23;20000;-89
2023/11/03 19:55:51;;;;;;;0.50;0.10;;;;;;;;;;6218057;23;20543;-91
2023/11/03 19:58:18;;;;;;;0.30;0.10;;;;;;;;;;6218047;23;20562;-90
2023/11/03 20:00:47;;;;;;;2.22;0.93;;;;;;;;;;6218756;23;20493;-92
2023/11/03 20:03:53;;;;;;;0.70;0.52;;;;;;;;;;6216624;23;20091;-89
2023/11/03 20:30:03;;;;;;;;;;;;;;;;;;6246135;23;20023;-89
2023/11/03 20:38:21;;;;;;;1.08;0.32;;;;;;;;;;6245887;23;20024;-89
2023/11/03 20:41:28;;;;;;;;;;;;;;;;;;;;;
2023/11/03 20:46:57;;;;;;;0.15;0.15;;;;;;;;;;6247791;23;20103;-89
2023/11/03 20:50:12;;;;;;;;;;;;;;;;;;;;;
2023/11/03 21:04:59;;;;;;;;;;;;;;;;;;;;;
2023/11/03 21:41:01;;;;;;;0.93;0.20;;;;;;;;;;6181364;23;19999;-87
2023/11/03 21:43:41;;;;;;;1.00;0.20;;;;;;;;;;6212187;23;20451;-89
2023/11/03 21:46:30;;;;;;;1.83;0.88;;;;;;;;;;6212540;23;20055;-89
2023/11/03 21:48:58;;;;;;;0.82;0.50;;;;;;;;;;6173290;23;20021;-90
2023/11/03 21:51:46;;;;;;;;;;;;;;;;;;;;;
2023/11/03 21:54:32;;;;;;;0.52;0.40;;;;;;;;;;6151950;23;20120;-90
2023/11/03 21:57:09;;;;;;;0.17;0.10;;;;;;;;;;6090652;23;20392;-90
2023/11/03 22:00:07;;;;;;;1.17;0.30;;;;;;;;;;6132090;23;20109;-88
2023/11/03 22:06:09;;;;;;;3.08;0.45;;;;;;;;;;6091511;23;20448;-89
2023/11/03 22:09:05;;;;;;;;;;;;;;;;;;;;;
2023/11/03 22:28:55;;;;;;;0.50;0.30;;;;;;;;;;6216548;23;20075;-91
2023/11/03 22:35:23;;;;;;;;;;;;;;;;;;;;;
2023/11/03 22:37:53;;;;;;;0.43;0.30;;;;;;;;;;6183036;23;20088;-89
2023/11/03 22:40:48;;;;;;;0.50;0.30;;;;;;;;;;6157869;23;20017;-89
2023/11/03 22:43:48;;;;;;;0.30;0.30;;;;;;;;;;6157923;23;20017;-90
2023/11/03 22:49:39;;;;;;;0.80;0.22;;;;;;;;;;6153770;23;20053;-90
2023/11/03 22:52:24;;;;;;;4.82;0.38;;;;;;;;;;6096970;23;20050;-89
2023/11/03 22:55:16;;;;;;;0.77;0.40;;;;;;;;;;6072275;23;20017;-88
2023/11/03 23:01:31;;;;;;;3.28;0.43;;;;;;;;;;6073357;23;20002;-88
2023/11/03 23:04:16;;;;;;;0.57;0.35;;;;;;;;;;6099787;23;20334;-89
2023/11/03 23:07:14;;;;;;;0.75;0.30;;;;;;;;;;6099009;23;20153;-89
2023/11/03 23:10:08;;;;;;;0.75;0.50;;;;;;;;;;6099325;23;20020;-91
2023/11/03 23:12:42;;;;;;;1.17;0.55;;;;;;;;;;6113113;23;20442;-91
2023/11/03 23:21:41;;;;;;;0.95;0.50;;;;;;;;;;6240726;23;20071;-89
2023/11/03 23:24:20;;;;;;;1.05;0.30;;;;;;;;;;6217033;23;20150;-89
2023/11/03 23:27:14;;;;;;;1.27;0.50;;;;;;;;;;6219896;23;20019;-91
2023/11/03 23:30:01;;;;;;;0.22;0.10;;;;;;;;;;6219313;23;20012;-91
2023/11/03 23:35:51;;;;;;;0.55;0.20;;;;;;;;;;6229785;23;20063;-88
2023/11/03 23:38:54;;;;;;;0.30;0.20;;;;;;;;;;6218654;23;20478;-91
2023/11/03 23:45:07;;;;;;;0.98;0.60;;;;;;;;;;6122962;23;20058;-91
2023/11/03 23:47:48;;;;;;;0.00;0.00;;;;;;;;;;6240676;23;20012;-89
2023/11/03 23:53:20;;;;;;;1.83;0.63;;;;;;;;;;6199671;23;20012;-88
2023/11/03 23:56:02;;;;;;;;;;;;;;;;;;;;;
2023/11/03 23:58:59;;;;;;;;;;;;;;;;;;6151383;23;19912;-88
